Observations
| Time | Sensor | AQI | SAQ | Temp °C | Hum % | Pres Pa | CO μg/m³ | H₂S μg/m³ | NO μg/m³ | NO₂ μg/m³ | O₃ μg/m³ | SO₂ μg/m³ | CO₂e PPM | VOC PPM | PM1 μg/m³ | PM2.5 μg/m³ | PM4 μg/m³ | PM10 μg/m³ | TPS µm |
|---|---|---|---|---|---|---|---|---|---|---|---|---|---|---|---|---|---|---|---|
| Thursday 13 August 2026 | |||||||||||||||||||
| 02:43 | Trim Market St | 3 | 21.3 | 69 | 55,254 | 0.04 | 1.88 | 1.06 | 26.53 | 48.31 | 0 | 4.28 | 5.07 | 7.53 | |||||
| 02:42 | Trim Patrick St | 2 | 20.7 | 73 | 38,460 | 0 | 15.71 | 1.1 | 25.12 | 42.89 | 6.28 | 8 | 12.1 | 13.31 | |||||
| 02:42 | Trim Market St | 3 | 21.3 | 68 | 55,347 | 0.03 | 1.17 | 1.05 | 24.37 | 47.53 | 0 | 3.56 | 5.57 | 8.17 | |||||
| 02:41 | Trim Patrick St | 2 | 20.7 | 73 | 38,460 | 0 | 13.18 | 1.11 | 38.1 | 27.62 | 5.25 | 8 | 11.38 | 12.52 | |||||
| 02:41 | Trim Market St | 3 | 21.3 | 68 | 55,452 | 0.03 | 1.22 | 1.05 | 25.53 | 48.37 | 0 | 2.85 | 4.59 | 6.89 | |||||
| 02:40 | Trim Patrick St | 2 | 20.7 | 73 | 38,459 | 0 | 13.68 | 1.1 | 24.22 | 40.6 | 6.21 | 6.29 | 10.68 | 11.75 | |||||
| 02:40 | Trim Market St | 3 | 21.3 | 68 | 55,538 | 0.03 | 1.56 | 1.05 | 25.46 | 49.69 | 0 | 3.56 | 5.58 | 8.8 | |||||
| 02:39 | Trim Patrick St | 2 | 20.7 | 73 | 38,459 | 0 | 14.47 | 1.09 | 31.83 | 34.21 | 6.02 | 7.14 | 12.11 | 13.32 | |||||
| 02:38 | Trim Patrick St | 2 | 20.7 | 73 | 38,459 | 0 | 14.6 | 1.1 | 29.07 | 34.65 | 6.01 | 6.29 | 9.98 | 10.98 | |||||
| 02:38 | Trim Market St | 3 | 21.3 | 68 | 55,747 | 0.02 | 2.7 | 1.06 | 30.88 | 45.92 | 0 | 3.56 | 5.1 | 8.17 | |||||
| 02:37 | Trim Patrick St | 2 | 20.7 | 72 | 38,459 | 0 | 17.24 | 1.09 | 40.87 | 29.99 | 5.61 | 5.43 | 10.02 | 11.02 | |||||
| 02:37 | Trim Market St | 3 | 21.3 | 68 | 55,854 | 0.03 | 1.48 | 1.06 | 24.77 | 48.5 | 0 | 2.85 | 4.62 | 6.89 | |||||
| 02:36 | Trim Patrick St | 2 | 20.7 | 73 | 38,459 | 0 | 13.39 | 1.09 | 37.38 | 28.57 | 5.05 | 7.14 | 11.43 | 12.57 | |||||
| 02:36 | Trim Market St | 3 | 21.3 | 68 | 55,954 | 0.03 | 0.67 | 1.06 | 23.35 | 48.18 | 0 | 4.28 | 5.6 | 8.81 | |||||
| 02:35 | Trim Patrick St | 2 | 20.7 | 72 | 38,459 | 0 | 10.96 | 1.1 | 24.08 | 39.03 | 5.88 | 8 | 11.45 | 12.59 | |||||
| 02:35 | Trim Market St | 3 | 21.3 | 68 | 56,036 | 0.01 | 0 | 1.05 | 19.29 | 59.15 | 0 | 4.28 | 5.11 | 7.53 | |||||
| 02:34 | Trim Patrick St | 2 | 20.7 | 72 | 38,459 | 0 | 13.02 | 1.1 | 27.31 | 41.61 | 5.94 | 6.29 | 10.73 | 11.8 | |||||
| 02:33 | Trim Patrick St | 2 | 20.7 | 72 | 38,458 | 0 | 11.41 | 1.09 | 29.29 | 35.57 | 5.65 | 6.29 | 10.02 | 11.02 | |||||
| 02:32 | Trim Market St | 3 | 21.3 | 68 | 56,097 | 0.01 | 0.88 | 1.06 | 24.61 | 53.82 | 0 | 3.56 | 5.13 | 7.53 | |||||
| 02:32 | Trim Patrick St | 2 | 20.7 | 72 | 38,457 | 0 | 12.73 | 1.09 | 23.26 | 41.86 | 5.96 | 6.29 | 12.18 | 13.4 | |||||